Time;durP1;ratioP1;P1;durP2;ratioP2;P2;SDS_P1;SDS_P2;PMS_P1;PMS_P2;Temp;Humidity;BMP_temperature;BMP_pressure;BME280_temperature;BME280_humidity;BME280_pressure;Samples;Min_cycle;Max_cycle;Signal;HPM_P1;HPM_P2
2021/07/10 00:01:32;;;;;;;8.30;7.37;;;16.40;99.90;;;;;;5006397;28;20509;-75
2021/07/10 00:03:59;;;;;;;8.73;7.70;;;16.40;99.90;;;;;;4972015;28;20628;-76
2021/07/10 00:06:26;;;;;;;9.70;8.87;;;16.30;99.90;;;;;;4976685;28;20418;-78
2021/07/10 00:08:56;;;;;;;9.67;8.47;;;16.20;99.90;;;;;;4991592;28;20557;-77
2021/07/10 00:11:23;;;;;;;14.43;8.00;;;16.20;99.90;;;;;;5014522;28;20934;-77
2021/07/10 00:13:50;;;;;;;12.60;8.83;;;16.10;99.90;;;;;;5013798;28;20457;-77
2021/07/10 00:16:17;;;;;;;9.17;8.23;;;16.10;99.90;;;;;;5015904;28;20475;-78
2021/07/10 00:18:44;;;;;;;12.93;9.33;;;16.10;99.90;;;;;;5005209;28;20477;-76
2021/07/10 00:21:12;;;;;;;10.27;8.47;;;16.10;99.90;;;;;;4997593;28;20426;-76
2021/07/10 00:23:39;;;;;;;9.87;8.30;;;16.00;99.90;;;;;;4997248;28;20504;-76
2021/07/10 00:26:06;;;;;;;11.70;8.70;;;16.00;99.90;;;;;;4997641;28;20418;-77
2021/07/10 00:28:33;;;;;;;8.33;7.40;;;16.00;99.90;;;;;;4997048;28;20470;-74
2021/07/10 00:31:00;;;;;;;10.00;8.57;;;15.90;99.90;;;;;;4997567;28;20426;-76
2021/07/10 00:33:27;;;;;;;9.57;7.47;;;15.90;99.90;;;;;;4995534;28;20469;-76
2021/07/10 00:35:54;;;;;;;10.47;9.17;;;15.90;99.90;;;;;;4997567;28;20850;-77
2021/07/10 00:38:21;;;;;;;10.00;7.87;;;15.80;99.90;;;;;;4994044;28;20857;-77
2021/07/10 00:40:47;;;;;;;9.10;8.20;;;15.80;99.90;;;;;;4978674;28;20423;-76
2021/07/10 00:43:14;;;;;;;9.70;8.57;;;15.80;99.90;;;;;;4976259;28;20553;-75
2021/07/10 00:45:41;;;;;;;9.63;8.30;;;15.80;99.90;;;;;;4975968;28;20423;-76
2021/07/10 00:48:08;;;;;;;9.77;8.80;;;15.80;99.90;;;;;;4975896;28;20473;-76
2021/07/10 00:50:35;;;;;;;9.80;8.90;;;15.70;99.90;;;;;;4975851;28;20438;-76
2021/07/10 00:53:02;;;;;;;8.90;8.10;;;15.70;99.90;;;;;;4975879;28;20842;-74
2021/07/10 00:55:29;;;;;;;10.10;8.20;;;15.70;99.90;;;;;;4975061;28;20438;-75
2021/07/10 00:57:58;;;;;;;9.00;8.10;;;15.70;99.90;;;;;;4974096;28;21051;-76
2021/07/10 01:00:26;;;;;;;9.07;6.77;;;15.60;99.90;;;;;;4975818;28;20419;-75
2021/07/10 01:02:54;;;;;;;9.47;8.57;;;15.60;99.90;;;;;;4989678;28;20496;-75
2021/07/10 01:05:27;;;;;;;9.20;8.27;;;15.60;99.90;;;;;;4995155;28;20460;-76
2021/07/10 01:07:56;;;;;;;10.53;9.50;;;15.60;99.90;;;;;;4994591;28;20472;-75
2021/07/10 01:10:24;;;;;;;9.33;8.33;;;15.50;99.90;;;;;;4990911;28;20506;-76
2021/07/10 01:12:54;;;;;;;9.37;8.40;;;15.50;99.90;;;;;;4975161;28;20469;-76
2021/07/10 01:15:23;;;;;;;10.30;8.50;;;15.50;99.90;;;;;;4975275;28;20446;-76
2021/07/10 01:17:50;;;;;;;9.20;8.30;;;15.50;99.90;;;;;;4988558;28;20465;-76
2021/07/10 01:20:19;;;;;;;10.13;9.13;;;15.50;99.90;;;;;;4995004;28;20422;-76
2021/07/10 01:22:48;;;;;;;9.63;8.10;;;15.50;99.90;;;;;;4994707;28;20565;-75
2021/07/10 01:25:18;;;;;;;8.70;7.90;;;15.50;99.90;;;;;;4976005;28;20439;-76
2021/07/10 01:27:45;;;;;;;9.07;7.83;;;15.60;99.90;;;;;;4973387;28;20470;-75
2021/07/10 01:30:15;;;;;;;9.17;8.27;;;15.60;99.90;;;;;;4990101;28;20449;-77
2021/07/10 01:32:44;;;;;;;10.00;8.30;;;15.50;99.90;;;;;;4975019;28;20473;-77
2021/07/10 01:35:12;;;;;;;8.57;6.73;;;15.40;99.90;;;;;;4993273;28;20422;-77
2021/07/10 01:37:42;;;;;;;10.73;7.50;;;15.40;99.90;;;;;;4994286;28;20473;-76
2021/07/10 01:40:14;;;;;;;8.87;7.33;;;15.40;99.90;;;;;;4994734;28;20496;-77
2021/07/10 01:42:42;;;;;;;9.83;7.73;;;15.40;99.90;;;;;;4994437;28;20462;-75
2021/07/10 01:45:09;;;;;;;10.13;6.73;;;15.30;99.90;;;;;;4994770;28;20426;-75
2021/07/10 01:47:36;;;;;;;15.17;7.97;;;15.30;99.90;;;;;;4991258;28;20465;-75
2021/07/10 01:50:08;;;;;;;10.00;8.60;;;15.20;99.90;;;;;;4993797;28;20440;-75
2021/07/10 01:52:37;;;;;;;9.10;7.73;;;15.20;99.90;;;;;;4994437;28;20827;-74
2021/07/10 01:55:06;;;;;;;9.57;7.90;;;15.20;99.90;;;;;;4979197;28;20925;-75
2021/07/10 01:57:33;;;;;;;9.57;7.97;;;15.20;99.90;;;;;;4989166;28;20844;-77
2021/07/10 02:00:00;;;;;;;8.10;7.40;;;15.30;99.90;;;;;;4974884;28;20429;-77
2021/07/10 02:02:26;;;;;;;14.27;8.27;;;15.20;99.90;;;;;;4974522;28;20997;-75
2021/07/10 02:04:53;;;;;;;8.63;7.70;;;15.10;99.90;;;;;;4976568;28;20425;-75
2021/07/10 02:07:20;;;;;;;11.17;8.50;;;15.10;99.90;;;;;;4975900;28;20463;-75
2021/07/10 02:09:47;;;;;;;10.00;8.33;;;15.00;99.90;;;;;;4977808;28;20948;-77
2021/07/10 02:12:15;;;;;;;10.60;7.50;;;15.10;99.90;;;;;;4974089;28;21002;-77
2021/07/10 02:14:42;;;;;;;9.43;7.70;;;15.00;99.90;;;;;;4976503;28;20426;-75
2021/07/10 02:17:09;;;;;;;8.87;8.03;;;15.00;99.90;;;;;;4975988;28;20965;-75
2021/07/10 02:19:36;;;;;;;11.13;7.40;;;15.00;99.90;;;;;;4990975;28;20478;-75
2021/07/10 02:22:05;;;;;;;9.33;7.17;;;15.00;99.90;;;;;;4975543;28;20464;-75
2021/07/10 02:24:34;;;;;;;5.90;5.40;;;15.00;99.90;;;;;;4982040;28;20538;-76
2021/07/10 02:27:02;;;;;;;10.33;6.40;;;15.00;99.90;;;;;;4989637;28;20833;-76
2021/07/10 02:29:29;;;;;;;8.03;6.80;;;14.90;99.90;;;;;;4975584;28;20422;-77
2021/07/10 02:31:58;;;;;;;7.00;6.30;;;14.90;99.90;;;;;;4984563;28;20467;-75
2021/07/10 02:34:26;;;;;;;8.70;6.00;;;14.90;99.90;;;;;;5014507;28;20488;-77
2021/07/10 02:36:53;;;;;;;10.67;6.80;;;14.80;99.90;;;;;;5014227;28;20454;-75
2021/07/10 02:39:20;;;;;;;8.30;5.47;;;14.70;99.90;;;;;;4998827;28;20484;-75
2021/07/10 02:41:47;;;;;;;10.00;6.67;;;14.70;99.90;;;;;;4974337;28;20427;-77
2021/07/10 02:44:15;;;;;;;18.27;7.53;;;14.80;99.90;;;;;;4975068;28;20465;-78
2021/07/10 02:46:41;;;;;;;8.00;7.00;;;14.80;99.90;;;;;;4975200;28;20430;-75
2021/07/10 02:49:08;;;;;;;10.33;7.13;;;14.70;99.90;;;;;;4975156;28;20800;-75
2021/07/10 02:51:38;;;;;;;10.47;6.97;;;14.70;99.90;;;;;;4974564;28;20423;-75
2021/07/10 02:54:05;;;;;;;9.40;7.20;;;14.60;99.90;;;;;;4989146;28;20473;-76
2021/07/10 02:56:33;;;;;;;9.67;6.63;;;14.60;99.90;;;;;;4974588;28;20438;-77
2021/07/10 02:58:59;;;;;;;10.10;7.93;;;14.60;99.90;;;;;;4974761;28;20469;-75
2021/07/10 03:01:26;;;;;;;9.77;8.40;;;14.60;99.90;;;;;;4974563;28;20426;-76
2021/07/10 03:03:54;;;;;;;15.03;8.70;;;14.60;99.90;;;;;;4987977;28;20469;-75
2021/07/10 03:06:20;;;;;;;9.77;8.83;;;14.70;99.90;;;;;;4994569;28;20430;-77
2021/07/10 03:08:47;;;;;;;10.17;8.60;;;14.70;99.90;;;;;;4994130;28;20835;-75
2021/07/10 03:11:15;;;;;;;10.67;7.50;;;14.70;99.90;;;;;;5008405;28;20956;-75
2021/07/10 03:13:43;;;;;;;8.80;8.00;;;14.70;99.90;;;;;;4992236;28;20474;-77
2021/07/10 03:16:10;;;;;;;8.30;7.13;;;14.70;99.90;;;;;;4993178;28;20513;-75
2021/07/10 03:18:37;;;;;;;9.50;8.50;;;14.60;99.90;;;;;;4992120;28;20488;-77
2021/07/10 03:21:04;;;;;;;10.53;8.50;;;14.60;99.90;;;;;;4992771;28;20520;-77
2021/07/10 03:23:31;;;;;;;10.90;7.93;;;14.70;99.90;;;;;;4988208;28;20470;-74
2021/07/10 03:25:58;;;;;;;10.10;9.10;;;14.60;99.90;;;;;;4971970;28;20449;-77
2021/07/10 03:28:25;;;;;;;10.87;9.00;;;14.60;99.90;;;;;;4971495;28;20470;-76
2021/07/10 03:30:53;;;;;;;15.63;9.87;;;14.60;99.90;;;;;;4973316;28;20431;-75
2021/07/10 03:33:21;;;;;;;10.60;9.47;;;14.60;99.90;;;;;;4998289;28;20854;-76
2021/07/10 03:35:49;;;;;;;11.97;9.20;;;14.50;99.90;;;;;;4973152;28;20438;-75
2021/07/10 03:38:16;;;;;;;10.40;9.30;;;14.50;99.90;;;;;;4976531;28;20884;-74
2021/07/10 03:40:43;;;;;;;10.13;8.07;;;14.50;99.90;;;;;;4994202;28;20430;-74
2021/07/10 03:43:11;;;;;;;10.87;8.00;;;14.50;99.90;;;;;;4993715;28;20458;-77
2021/07/10 03:45:37;;;;;;;10.37;8.00;;;14.60;99.90;;;;;;4979473;28;20524;-77
2021/07/10 03:48:05;;;;;;;9.17;7.90;;;14.60;99.90;;;;;;4986729;28;20481;-75
2021/07/10 03:50:31;;;;;;;10.50;8.53;;;14.60;99.90;;;;;;5014042;28;20426;-75
2021/07/10 03:52:59;;;;;;;13.30;9.80;;;14.70;99.90;;;;;;4998511;28;20473;-77
2021/07/10 03:55:29;;;;;;;11.30;10.10;;;14.70;99.90;;;;;;4978808;28;20449;-75
2021/07/10 03:57:56;;;;;;;9.57;8.60;;;14.80;99.90;;;;;;4978485;28;20492;-75
2021/07/10 04:00:23;;;;;;;10.80;9.80;;;14.80;99.90;;;;;;4994590;28;20455;-77
2021/07/10 04:02:51;;;;;;;12.97;10.40;;;14.90;99.90;;;;;;4978658;28;21013;-76
2021/07/10 04:05:18;;;;;;;12.90;8.57;;;14.90;99.90;;;;;;4978652;28;20429;-76
2021/07/10 04:07:45;;;;;;;10.97;8.70;;;15.00;99.90;;;;;;4978750;28;20462;-76
2021/07/10 04:10:13;;;;;;;10.97;8.77;;;15.00;99.90;;;;;;4993916;28;20468;-75
2021/07/10 04:12:42;;;;;;;9.47;7.70;;;15.00;99.90;;;;;;4978279;28;20558;-75
2021/07/10 04:15:10;;;;;;;10.23;8.80;;;15.10;99.90;;;;;;4978810;28;20529;-76
2021/07/10 04:17:38;;;;;;;11.90;10.40;;;15.10;99.90;;;;;;4980251;28;20458;-76
2021/07/10 04:20:06;;;;;;;12.47;10.50;;;15.10;99.90;;;;;;4979850;28;20837;-75
2021/07/10 04:22:33;;;;;;;13.50;9.63;;;15.20;99.90;;;;;;4976391;28;20557;-75
2021/07/10 04:25:03;;;;;;;12.53;10.20;;;15.20;99.90;;;;;;4977047;28;20443;-75
2021/07/10 04:27:32;;;;;;;11.40;8.27;;;15.30;99.90;;;;;;4975880;28;20469;-75
2021/07/10 04:29:59;;;;;;;9.93;8.90;;;15.40;99.90;;;;;;4976727;28;20434;-77
2021/07/10 04:32:27;;;;;;;11.07;10.07;;;15.40;99.90;;;;;;4975785;28;20467;-76
2021/07/10 04:34:54;;;;;;;13.60;9.37;;;15.40;99.90;;;;;;4992564;28;20446;-76
2021/07/10 04:37:21;;;;;;;10.70;9.30;;;15.50;99.90;;;;;;4995114;28;20454;-75
2021/07/10 04:39:48;;;;;;;12.83;9.67;;;15.60;99.90;;;;;;4994251;28;20477;-75
2021/07/10 04:42:15;;;;;;;12.07;9.27;;;15.50;99.90;;;;;;5009902;28;20485;-76
2021/07/10 04:44:45;;;;;;;11.50;10.30;;;15.60;99.90;;;;;;4995634;28;20932;-77
2021/07/10 04:47:12;;;;;;;16.17;10.27;;;15.60;99.90;;;;;;4995008;28;20450;-76
2021/07/10 04:49:39;;;;;;;11.60;9.87;;;15.70;99.90;;;;;;4975787;28;20545;-76
2021/07/10 04:52:07;;;;;;;11.17;9.63;;;15.70;99.90;;;;;;4975484;28;20485;-75
2021/07/10 04:54:34;;;;;;;13.50;10.40;;;15.70;99.90;;;;;;4990647;28;20470;-76
2021/07/10 04:57:01;;;;;;;12.20;10.33;;;15.80;99.90;;;;;;4975324;28;20553;-75
2021/07/10 04:59:28;;;;;;;11.13;10.03;;;15.80;99.90;;;;;;4958411;28;20493;-77
2021/07/10 05:01:55;;;;;;;15.40;11.93;;;15.90;99.90;;;;;;4983022;28;20450;-76
2021/07/10 05:04:22;;;;;;;12.43;10.00;;;16.00;99.90;;;;;;4995296;28;20469;-75
2021/07/10 05:06:49;;;;;;;12.40;10.60;;;16.10;99.90;;;;;;4993343;28;20912;-76
2021/07/10 05:09:16;;;;;;;9.40;8.40;;;16.20;99.90;;;;;;4984860;28;20805;-75
2021/07/10 05:11:43;;;;;;;11.67;9.23;;;16.30;99.90;;;;;;4975096;28;20433;-75
2021/07/10 05:14:10;;;;;;;12.40;9.43;;;16.30;99.90;;;;;;4975514;28;20438;-75
2021/07/10 05:16:37;;;;;;;10.50;8.73;;;16.40;99.90;;;;;;4975105;28;20427;-77
2021/07/10 05:19:05;;;;;;;10.53;9.43;;;16.40;99.90;;;;;;5002387;28;20483;-75
2021/07/10 05:21:33;;;;;;;12.70;9.13;;;16.50;99.90;;;;;;4976284;28;20434;-75
2021/07/10 05:24:01;;;;;;;12.07;9.00;;;16.50;99.90;;;;;;4977965;28;20840;-77
2021/07/10 05:26:28;;;;;;;13.80;10.00;;;16.50;99.90;;;;;;4976823;28;20415;-77
2021/07/10 05:28:55;;;;;;;10.73;9.70;;;16.60;99.90;;;;;;4976794;28;20546;-76
2021/07/10 05:31:21;;;;;;;12.90;10.13;;;16.60;99.90;;;;;;4993136;28;20453;-75
2021/07/10 05:33:50;;;;;;;12.43;9.80;;;16.80;99.90;;;;;;4977042;28;20478;-75
2021/07/10 05:36:16;;;;;;;14.23;10.03;;;16.80;99.90;;;;;;4977315;28;20427;-76
2021/07/10 05:38:43;;;;;;;10.63;9.33;;;16.90;99.90;;;;;;4974963;28;20981;-75
2021/07/10 05:41:16;;;;;;;10.50;9.40;;;16.90;99.90;;;;;;4975120;28;20423;-75
2021/07/10 05:43:43;;;;;;;15.47;10.10;;;17.10;99.90;;;;;;4974471;28;20487;-75
2021/07/10 05:46:11;;;;;;;14.80;10.30;;;17.20;99.90;;;;;;4974965;28;20755;-75
2021/07/10 05:48:39;;;;;;;12.57;11.37;;;17.20;99.90;;;;;;4974901;28;20467;-74
2021/07/10 05:51:06;;;;;;;14.30;11.17;;;17.20;99.90;;;;;;4975093;28;20435;-76
2021/07/10 05:53:33;;;;;;;11.83;9.93;;;17.30;99.90;;;;;;4985067;28;20468;-75
2021/07/10 05:56:00;;;;;;;10.30;9.33;;;17.30;99.90;;;;;;5013031;28;20422;-76
2021/07/10 05:58:27;;;;;;;10.40;9.43;;;17.40;99.90;;;;;;5011646;28;20469;-76
2021/07/10 06:00:54;;;;;;;12.47;10.33;;;17.40;99.90;;;;;;4984536;28;20434;-76
2021/07/10 06:03:21;;;;;;;13.07;10.90;;;17.40;99.90;;;;;;5009069;28;20540;-75
2021/07/10 06:05:48;;;;;;;11.63;10.47;;;17.60;99.90;;;;;;5013851;28;20432;-75
2021/07/10 06:08:15;;;;;;;11.97;10.77;;;17.60;99.90;;;;;;5008859;28;20470;-76
2021/07/10 06:10:42;;;;;;;12.20;9.53;;;17.60;99.90;;;;;;4989809;28;20475;-76
2021/07/10 06:13:11;;;;;;;12.87;10.10;;;17.60;99.90;;;;;;4972731;28;20471;-76
2021/07/10 06:15:38;;;;;;;12.67;10.07;;;17.60;99.90;;;;;;4974586;28;20940;-74
2021/07/10 06:18:05;;;;;;;10.03;9.03;;;17.60;99.90;;;;;;4982087;28;20475;-77
2021/07/10 06:20:34;;;;;;;11.20;10.00;;;17.60;99.90;;;;;;5009263;28;20830;-74
2021/07/10 06:23:04;;;;;;;9.37;8.43;;;17.60;99.90;;;;;;4991662;28;20522;-76
2021/07/10 06:25:35;;;;;;;9.60;8.47;;;17.60;99.90;;;;;;4973662;28;20424;-75
2021/07/10 06:28:06;;;;;;;11.70;9.83;;;17.70;99.90;;;;;;4974821;28;20475;-76
2021/07/10 06:30:34;;;;;;;10.97;9.77;;;17.70;99.90;;;;;;4975677;28;20434;-75
2021/07/10 06:33:01;;;;;;;11.80;8.80;;;17.80;99.90;;;;;;4976544;28;20497;-76
2021/07/10 06:35:28;;;;;;;13.63;10.40;;;17.90;99.90;;;;;;4976017;28;20519;-75
2021/07/10 06:37:55;;;;;;;12.70;9.60;;;17.90;99.90;;;;;;4990347;28;20462;-75
2021/07/10 06:40:22;;;;;;;10.20;9.10;;;18.00;99.90;;;;;;4980660;28;20475;-75
2021/07/10 06:42:49;;;;;;;10.23;8.87;;;18.20;99.90;;;;;;4993793;28;20546;-76
2021/07/10 06:45:18;;;;;;;8.60;6.93;;;18.30;99.90;;;;;;4992966;28;20432;-77
2021/07/10 06:47:47;;;;;;;12.77;7.93;;;18.60;99.90;;;;;;5008206;28;20461;-75
2021/07/10 06:50:18;;;;;;;11.43;8.40;;;18.80;99.90;;;;;;4974955;28;20457;-76
2021/07/10 06:52:48;;;;;;;13.00;8.90;;;18.90;99.90;;;;;;4988962;28;20469;-76
2021/07/10 06:55:16;;;;;;;11.90;9.20;;;19.00;99.90;;;;;;4975537;28;20553;-76
2021/07/10 06:57:43;;;;;;;9.80;8.60;;;19.00;99.90;;;;;;4973572;28;20470;-75
2021/07/10 07:00:16;;;;;;;9.57;8.57;;;19.20;99.90;;;;;;4973634;28;20990;-76
2021/07/10 07:02:43;;;;;;;10.17;8.90;;;19.30;99.90;;;;;;4985742;28;20557;-76
2021/07/10 07:05:10;;;;;;;8.83;7.87;;;19.40;99.90;;;;;;4993050;28;20410;-75
2021/07/10 07:07:38;;;;;;;9.70;7.70;;;19.40;99.90;;;;;;5007042;28;20553;-75
2021/07/10 07:10:07;;;;;;;9.90;8.20;;;19.40;99.90;;;;;;4976584;28;20799;-75
2021/07/10 07:12:34;;;;;;;9.63;7.50;;;19.50;99.90;;;;;;4974103;28;20489;-77
2021/07/10 07:15:02;;;;;;;11.90;8.13;;;19.50;99.90;;;;;;4976269;28;20429;-76
2021/07/10 07:17:29;;;;;;;8.93;7.87;;;19.50;99.90;;;;;;4966158;28;20477;-78
2021/07/10 07:19:56;;;;;;;10.70;8.67;;;19.50;99.90;;;;;;4976188;28;20946;-76
2021/07/10 07:22:23;;;;;;;7.43;6.57;;;19.40;99.90;;;;;;4975795;28;20477;-77
2021/07/10 07:24:50;;;;;;;9.37;7.80;;;19.40;99.90;;;;;;5005943;28;20535;-76
2021/07/10 07:27:17;;;;;;;9.00;7.90;;;19.40;99.90;;;;;;5012841;28;20774;-77
2021/07/10 07:29:44;;;;;;;8.57;7.67;;;19.60;99.90;;;;;;5013320;28;20516;-75
2021/07/10 07:32:11;;;;;;;7.97;7.17;;;19.70;99.90;;;;;;5012743;28;20536;-74
2021/07/10 07:34:38;;;;;;;7.47;6.73;;;19.70;99.90;;;;;;4997075;28;20450;-74
2021/07/10 07:37:05;;;;;;;9.33;6.93;;;19.70;99.90;;;;;;4991319;28;20488;-76
2021/07/10 07:39:32;;;;;;;8.40;7.50;;;19.80;99.90;;;;;;5009375;28;20476;-76
2021/07/10 07:41:59;;;;;;;9.40;6.90;;;19.80;99.90;;;;;;4976230;28;20456;-75
2021/07/10 07:44:28;;;;;;;8.40;7.60;;;19.90;99.90;;;;;;4995248;28;20524;-75
2021/07/10 07:46:54;;;;;;;7.73;6.93;;;19.90;99.90;;;;;;4992620;28;20446;-74
2021/07/10 07:49:21;;;;;;;7.70;6.93;;;19.90;99.90;;;;;;4991108;28;20762;-75
2021/07/10 07:51:48;;;;;;;10.33;8.27;;;19.90;99.90;;;;;;5007732;28;20796;-74
2021/07/10 07:54:15;;;;;;;8.60;7.23;;;19.90;99.90;;;;;;4980170;28;20474;-74
2021/07/10 07:56:45;;;;;;;10.43;7.03;;;20.10;99.90;;;;;;4956384;28;20438;-75
2021/07/10 07:59:12;;;;;;;10.00;6.43;;;20.20;99.90;;;;;;4974727;28;20591;-74
2021/07/10 08:01:39;;;;;;;8.00;5.80;;;20.40;99.90;;;;;;4977734;28;20444;-73
2021/07/10 08:04:06;;;;;;;7.93;7.00;;;20.40;99.90;;;;;;5008730;28;20965;-76
2021/07/10 08:06:33;;;;;;;8.70;6.30;;;20.50;99.90;;;;;;4992547;28;20457;-76
2021/07/10 08:09:00;;;;;;;8.30;7.50;;;20.60;99.90;;;;;;4985956;28;20450;-76
2021/07/10 08:11:27;;;;;;;11.13;5.73;;;20.80;99.90;;;;;;4989192;28;20541;-75
2021/07/10 08:13:54;;;;;;;7.53;6.83;;;20.90;99.90;;;;;;4992101;28;20545;-75
2021/07/10 08:16:21;;;;;;;7.50;6.50;;;20.90;99.90;;;;;;4992886;28;20780;-74
2021/07/10 08:18:49;;;;;;;8.20;7.50;;;20.90;99.90;;;;;;5004255;28;20663;-75
2021/07/10 08:21:15;;;;;;;8.93;7.53;;;21.00;99.90;;;;;;4987873;28;20557;-74
2021/07/10 08:23:43;;;;;;;7.83;7.13;;;20.90;99.90;;;;;;4984204;28;20477;-75
2021/07/10 08:26:10;;;;;;;10.50;7.70;;;20.90;99.90;;;;;;5009104;28;20440;-75
2021/07/10 08:28:36;;;;;;;8.03;7.10;;;21.00;99.90;;;;;;4992506;28;21215;-76
2021/07/10 08:31:03;;;;;;;7.60;6.77;;;20.90;99.90;;;;;;4994057;28;20710;-74
2021/07/10 08:33:31;;;;;;;7.27;6.40;;;21.10;99.90;;;;;;4993071;28;20482;-76
2021/07/10 08:36:01;;;;;;;7.10;6.40;;;21.10;99.90;;;;;;5002311;28;20504;-75
2021/07/10 08:38:28;;;;;;;5.87;5.30;;;21.10;99.90;;;;;;4991759;28;20486;-74
2021/07/10 08:40:55;;;;;;;6.60;6.00;;;21.40;99.90;;;;;;4994897;28;20464;-76
2021/07/10 08:43:22;;;;;;;7.23;6.57;;;21.30;99.90;;;;;;4994257;28;20484;-74
2021/07/10 08:45:49;;;;;;;7.83;5.60;;;21.30;99.90;;;;;;4993210;28;20446;-75
2021/07/10 08:48:17;;;;;;;8.20;6.30;;;21.40;99.90;;;;;;4993811;28;20472;-75
2021/07/10 08:50:44;;;;;;;6.20;5.60;;;21.30;99.90;;;;;;4994224;28;20438;-72
2021/07/10 08:53:11;;;;;;;6.00;5.40;;;21.30;99.90;;;;;;4997119;28;20478;-74
2021/07/10 08:55:38;;;;;;;6.53;5.57;;;21.30;99.90;;;;;;4992221;28;20445;-74
2021/07/10 08:58:06;;;;;;;7.23;5.73;;;21.40;99.90;;;;;;4992130;28;20470;-76
2021/07/10 09:00:37;;;;;;;6.40;5.80;;;21.40;99.90;;;;;;4994962;28;20458;-76
2021/07/10 09:03:06;;;;;;;6.20;5.60;;;21.50;99.90;;;;;;4991640;28;20474;-75
2021/07/10 09:05:33;;;;;;;6.63;5.37;;;21.50;99.90;;;;;;4991213;28;20440;-76
2021/07/10 09:08:16;;;;;;;6.13;5.53;;;21.40;99.90;;;;;;5003806;28;20464;-76
2021/07/10 09:10:45;;;;;;;8.80;6.20;;;21.30;99.90;;;;;;4992927;28;20426;-75
2021/07/10 09:13:12;;;;;;;6.20;5.60;;;21.30;99.90;;;;;;4992109;28;21030;-77
2021/07/10 09:15:40;;;;;;;8.23;7.30;;;21.30;99.90;;;;;;4991782;28;20437;-73
2021/07/10 09:18:09;;;;;;;6.80;5.60;;;21.30;99.90;;;;;;4990608;28;20832;-76
2021/07/10 09:20:38;;;;;;;6.13;5.60;;;21.20;99.90;;;;;;5006158;28;20560;-76
2021/07/10 09:23:24;;;;;;;6.63;5.30;;;21.00;99.90;;;;;;5007838;28;20480;-74
2021/07/10 09:25:51;;;;;;;6.63;5.93;;;20.90;99.90;;;;;;4991502;28;20755;-73
2021/07/10 09:28:27;;;;;;;8.27;6.20;;;20.90;99.90;;;;;;4990388;28;20840;-75
2021/07/10 09:30:54;;;;;;;9.83;6.20;;;20.80;99.90;;;;;;4991961;28;20452;-76
2021/07/10 09:33:22;;;;;;;8.00;5.00;;;20.70;99.90;;;;;;4991429;28;20485;-76
2021/07/10 09:36:00;;;;;;;6.40;5.67;;;20.70;99.90;;;;;;4992314;28;20442;-74
2021/07/10 09:38:33;;;;;;;7.43;6.73;;;20.60;99.90;;;;;;4997544;28;21000;-72
2021/07/10 09:41:11;;;;;;;6.97;6.27;;;20.60;99.90;;;;;;4974767;28;20502;-75
2021/07/10 09:43:40;;;;;;;7.80;6.30;;;20.60;99.90;;;;;;5009094;28;20481;-73
2021/07/10 09:46:08;;;;;;;7.97;6.60;;;20.50;99.90;;;;;;5006043;28;21062;-76
2021/07/10 09:48:41;;;;;;;7.20;5.97;;;20.40;99.90;;;;;;4993731;28;20549;-75
2021/07/10 09:51:18;;;;;;;6.03;5.40;;;20.30;99.90;;;;;;4993930;28;20449;-73
2021/07/10 09:54:01;;;;;;;6.97;5.53;;;20.20;99.90;;;;;;4988902;28;20527;-74
2021/07/10 09:56:29;;;;;;;11.07;6.23;;;20.10;99.90;;;;;;4983702;28;20780;-74
2021/07/10 09:58:58;;;;;;;8.17;5.60;;;20.10;99.90;;;;;;4988684;28;20460;-75
2021/07/10 10:01:34;;;;;;;9.10;7.27;;;20.10;99.90;;;;;;4993651;28;20470;-72
2021/07/10 10:04:23;;;;;;;6.80;6.20;;;20.10;99.90;;;;;;5007535;28;20490;-75
2021/07/10 10:06:51;;;;;;;7.27;6.50;;;20.20;99.90;;;;;;4987697;28;20848;-76
2021/07/10 10:09:25;;;;;;;6.93;6.20;;;20.20;99.90;;;;;;4991650;28;20455;-74
2021/07/10 10:11:57;;;;;;;7.37;6.27;;;20.20;99.90;;;;;;4993375;28;20467;-75
2021/07/10 10:14:31;;;;;;;8.30;7.50;;;20.20;99.90;;;;;;4976354;28;20442;-75
2021/07/10 10:16:59;;;;;;;6.07;5.47;;;20.20;99.90;;;;;;4986033;28;20466;-75
2021/07/10 10:19:32;;;;;;;7.17;6.47;;;20.10;99.90;;;;;;5007457;28;20499;-74
2021/07/10 10:22:02;;;;;;;6.87;6.10;;;20.20;99.90;;;;;;5000743;28;20473;-75
2021/07/10 10:24:30;;;;;;;7.57;6.10;;;20.30;99.90;;;;;;4992811;28;20422;-75
2021/07/10 10:27:04;;;;;;;6.90;6.20;;;20.30;99.90;;;;;;4991465;28;20987;-75
2021/07/10 10:29:32;;;;;;;9.17;6.87;;;20.30;99.90;;;;;;4992827;28;20430;-74
2021/07/10 10:31:59;;;;;;;6.67;6.07;;;20.30;99.90;;;;;;4992059;28;20504;-75
2021/07/10 10:34:27;;;;;;;6.80;6.20;;;20.40;99.90;;;;;;4990532;28;20533;-76
2021/07/10 10:36:55;;;;;;;6.97;6.27;;;20.60;99.90;;;;;;4992091;28;20828;-72
2021/07/10 10:39:26;;;;;;;7.30;6.67;;;20.70;99.90;;;;;;4988772;28;20482;-76
2021/07/10 10:42:05;;;;;;;7.03;5.60;;;20.70;99.90;;;;;;4975572;28;20877;-72
2021/07/10 10:44:39;;;;;;;7.20;4.77;;;20.70;99.90;;;;;;5008035;28;20448;-74
2021/07/10 10:47:09;;;;;;;8.90;6.37;;;20.70;99.90;;;;;;4989480;28;20474;-73
2021/07/10 10:49:43;;;;;;;5.80;5.20;;;20.70;99.90;;;;;;4993311;28;20439;-72
2021/07/10 10:52:32;;;;;;;7.80;5.77;;;20.80;99.90;;;;;;4992590;28;20471;-74
2021/07/10 10:55:12;;;;;;;5.50;4.60;;;20.80;99.90;;;;;;4992072;28;20438;-76
2021/07/10 10:57:54;;;;;;;5.87;5.27;;;20.80;99.90;;;;;;4992779;28;20469;-75
2021/07/10 11:00:24;;;;;;;6.87;6.17;;;20.90;99.90;;;;;;4991558;28;21000;-74
2021/07/10 11:02:57;;;;;;;6.47;5.77;;;21.00;99.90;;;;;;4993508;28;20474;-74
2021/07/10 11:05:29;;;;;;;6.80;6.13;;;20.90;99.90;;;;;;4987741;28;20431;-74
2021/07/10 11:08:21;;;;;;;5.90;5.27;;;20.90;99.90;;;;;;4992076;28;21160;-74
2021/07/10 11:10:54;;;;;;;6.37;5.37;;;20.90;99.90;;;;;;4992593;28;20435;-76
2021/07/10 11:13:39;;;;;;;7.53;6.70;;;21.00;99.90;;;;;;4991605;28;20868;-71
2021/07/10 11:16:11;;;;;;;6.83;6.10;;;20.90;99.90;;;;;;4993270;28;20486;-76
2021/07/10 11:18:58;;;;;;;9.50;5.90;;;20.80;99.90;;;;;;4984566;28;20484;-72
2021/07/10 11:21:32;;;;;;;6.63;4.83;;;20.80;99.90;;;;;;4986509;28;20867;-74
2021/07/10 11:24:20;;;;;;;5.90;5.30;;;20.80;99.90;;;;;;4992566;28;20470;-74
2021/07/10 11:26:56;;;;;;;6.83;6.17;;;20.80;99.90;;;;;;5003480;28;20435;-73
2021/07/10 11:29:29;;;;;;;5.43;4.93;;;20.80;99.90;;;;;;4990472;28;20474;-74
2021/07/10 11:32:11;;;;;;;6.87;5.70;;;20.80;99.90;;;;;;4990614;28;20455;-73
2021/07/10 11:34:45;;;;;;;9.27;7.10;;;21.00;99.90;;;;;;5005614;28;20442;-75
2021/07/10 11:37:20;;;;;;;8.77;6.87;;;20.80;99.90;;;;;;4989047;28;20542;-74
2021/07/10 11:39:54;;;;;;;7.57;6.53;;;20.70;99.90;;;;;;4990335;28;20437;-76
2021/07/10 11:42:22;;;;;;;8.47;7.67;;;20.70;99.90;;;;;;4987746;28;20473;-76
2021/07/10 11:45:04;;;;;;;7.83;7.13;;;20.60;99.90;;;;;;5051255;23;20478;-70
2021/07/10 11:47:46;;;;;;;7.83;6.60;;;20.70;99.90;;;;;;4988498;28;20470;-71
2021/07/10 11:50:19;;;;;;;6.83;6.23;;;20.70;99.90;;;;;;5004977;28;20443;-70
2021/07/10 11:52:59;;;;;;;6.87;6.17;;;20.80;99.90;;;;;;4987723;28;20481;-71
2021/07/10 11:55:28;;;;;;;6.47;5.50;;;20.80;99.90;;;;;;4990161;28;20451;-70
2021/07/10 11:57:55;;;;;;;5.50;5.00;;;20.90;99.90;;;;;;4989381;28;20466;-70
2021/07/10 12:00:25;;;;;;;5.90;4.57;;;21.20;99.90;;;;;;4991602;28;20472;-71
2021/07/10 12:02:52;;;;;;;7.57;5.93;;;21.40;99.90;;;;;;4988931;28;21088;-70
2021/07/10 12:05:23;;;;;;;5.27;4.83;;;21.80;98.20;;;;;;4995895;28;20434;-71
2021/07/10 12:07:55;;;;;;;5.33;4.57;;;22.20;96.10;;;;;;4994138;28;20461;-70
2021/07/10 12:10:37;;;;;;;5.07;4.40;;;22.40;91.20;;;;;;4992419;28;20455;-71
2021/07/10 12:13:18;;;;;;;5.90;5.37;;;22.60;92.10;;;;;;4993334;28;20503;-70
2021/07/10 12:15:49;;;;;;;6.20;4.87;;;22.70;90.00;;;;;;4994877;28;20869;-70
2021/07/10 12:18:18;;;;;;;4.90;4.50;;;22.70;91.10;;;;;;4993841;28;20528;-70
2021/07/10 12:20:54;;;;;;;6.83;6.00;;;22.70;90.20;;;;;;4994550;28;20463;-70
2021/07/10 12:23:23;;;;;;;4.67;4.10;;;22.50;90.40;;;;;;4991075;28;20487;-70
2021/07/10 12:26:03;;;;;;;6.90;6.33;;;22.50;91.80;;;;;;4994364;28;20435;-71
2021/07/10 12:28:49;;;;;;;6.10;5.37;;;22.40;91.60;;;;;;4991286;28;20464;-71
2021/07/10 12:31:29;;;;;;;8.13;5.93;;;22.60;90.80;;;;;;4989844;28;20448;-70
2021/07/10 12:33:58;;;;;;;5.73;5.20;;;22.50;93.70;;;;;;4992369;28;20471;-70
2021/07/10 12:36:25;;;;;;;6.10;4.93;;;22.40;92.20;;;;;;4987546;28;20539;-71
2021/07/10 12:39:23;;;;;;;5.30;4.80;;;22.40;92.10;;;;;;4991028;28;20475;-71
2021/07/10 12:42:02;;;;;;;4.93;4.43;;;22.40;92.10;;;;;;4993141;28;20466;-71
2021/07/10 12:44:38;;;;;;;5.47;4.90;;;22.50;93.70;;;;;;4993652;28;20446;-70
2021/07/10 12:47:17;;;;;;;5.07;4.53;;;22.60;90.10;;;;;;4993155;28;20885;-71
2021/07/10 12:49:49;;;;;;;5.57;5.07;;;22.70;90.60;;;;;;4986869;28;20443;-70
2021/07/10 12:52:35;;;;;;;4.87;4.47;;;22.80;91.60;;;;;;4990795;28;20482;-70
2021/07/10 12:55:10;;;;;;;5.80;5.17;;;22.90;90.60;;;;;;4991543;28;20448;-71